Time,TemperatureF,DewpointF,PressureIn,WindDirection,WindDirectionDegrees,WindSpeedMPH,WindSpeedGustMPH,Humidity,HourlyPrecipIn,Conditions,Clouds,dailyrainin,SoftwareType,DateUTC
2013-10-15 00:01:00,51.2,49.5,30.33,North,1,0.0,0.0,94,0.00,,OVC015,0.40,VWS V14.01,2013-10-15 04:01:00,
2013-10-15 00:02:00,51.2,49.5,30.33,North,1,0.0,0.0,94,0.00,,OVC015,0.40,VWS V14.01,2013-10-15 04:02:00,
2013-10-15 00:04:00,51.2,49.8,30.33,North,1,0.0,0.0,95,0.00,,OVC015,0.00,VWS V14.01,2013-10-15 04:04:00,
2013-10-15 00:09:00,51.3,49.9,30.33,North,1,0.0,0.0,95,0.00,,OVC015,0.00,VWS V14.01,2013-10-15 04:09:00,
2013-10-15 00:14:00,51.4,50.0,30.33,North,1,0.0,0.0,95,0.00,,OVC015,0.00,VWS V14.01,2013-10-15 04:14:00,
2013-10-15 00:19:00,51.6,50.2,30.33,North,1,0.0,0.0,95,0.00,,OVC015,0.00,VWS V14.01,2013-10-15 04:19:00,
2013-10-15 00:24:00,51.8,50.4,30.33,North,1,0.0,0.0,95,0.00,,OVC015,0.00,VWS V14.01,2013-10-15 04:24:00,
2013-10-15 00:29:00,52.0,50.6,30.33,North,1,0.0,0.0,95,0.00,,OVC015,0.00,VWS V14.01,2013-10-15 04:29:00,
2013-10-15 00:34:00,52.1,50.7,30.33,North,1,0.0,0.0,95,0.00,,OVC015,0.00,VWS V14.01,2013-10-15 04:34:00,
2013-10-15 00:40:00,52.3,51.2,30.33,North,1,0.0,0.0,96,0.00,,OVC015,0.00,VWS V14.01,2013-10-15 04:40:00,
2013-10-15 00:45:00,52.3,50.9,30.33,North,1,0.0,0.0,95,0.00,,OVC026,0.00,VWS V14.01,2013-10-15 04:45:00,
2013-10-15 00:50:00,52.2,50.8,30.33,North,1,0.0,0.0,95,0.00,,OVC026,0.00,VWS V14.01,2013-10-15 04:50:00,
2013-10-15 00:55:00,52.2,50.8,30.32,North,1,0.0,0.0,95,0.00,,OVC026,0.00,VWS V14.01,2013-10-15 04:55:00,
2013-10-15 01:00:00,52.1,50.7,30.32,North,1,0.0,0.0,95,0.00,,OVC026,0.00,VWS V14.01,2013-10-15 05:00:00,
2013-10-15 01:05:00,52.3,51.2,30.32,North,1,0.0,0.0,96,0.00,,OVC026,0.00,VWS V14.01,2013-10-15 05:05:00,
2013-10-15 01:10:00,52.4,51.3,30.32,North,1,0.0,0.0,96,0.00,,OVC026,0.00,VWS V14.01,2013-10-15 05:10:00,
2013-10-15 01:15:00,52.4,51.3,30.32,North,1,0.0,0.0,96,0.00,,OVC026,0.00,VWS V14.01,2013-10-15 05:15:00,
2013-10-15 01:20:00,52.5,51.4,30.32,North,1,0.0,0.0,96,0.00,,OVC026,0.00,VWS V14.01,2013-10-15 05:20:00,
2013-10-15 01:25:00,52.5,51.4,30.31,North,1,0.0,0.0,96,0.00,,OVC026,0.00,VWS V14.01,2013-10-15 05:25:00,
2013-10-15 01:31:00,52.6,51.5,30.31,North,1,0.0,0.0,96,0.00,,OVC026,0.00,VWS V14.01,2013-10-15 05:31:00,
2013-10-15 01:36:00,52.6,51.5,30.31,North,1,0.0,0.0,96,0.00,,OVC026,0.00,VWS V14.01,2013-10-15 05:36:00,
2013-10-15 01:41:00,52.6,51.5,30.31,North,1,0.0,0.0,96,0.00,,OVC026,0.00,VWS V14.01,2013-10-15 05:41:00,
2013-10-15 01:46:00,52.6,51.5,30.31,North,1,0.0,0.0,96,0.00,,,0.00,VWS V14.01,2013-10-15 05:46:00,
2013-10-15 01:51:00,52.7,51.6,30.31,North,1,0.0,0.0,96,0.00,,,0.00,VWS V14.01,2013-10-15 05:51:00,
2013-10-15 01:56:00,52.7,51.6,30.31,North,1,0.0,0.0,96,0.00,,,0.00,VWS V14.01,2013-10-15 05:56:00,
2013-10-15 02:01:00,52.7,51.6,30.31,North,360,0.0,0.0,96,0.00,,,0.00,VWS V14.01,2013-10-15 06:01:00,
2013-10-15 02:06:00,52.7,51.6,30.31,North,360,0.0,0.0,96,0.00,,,0.00,VWS V14.01,2013-10-15 06:06:00,
2013-10-15 02:11:00,52.6,51.5,30.30,SW,231,0.0,0.0,96,0.00,,,0.00,VWS V14.01,2013-10-15 06:11:00,
2013-10-15 02:17:00,52.4,51.3,30.31,SW,231,0.0,0.0,96,0.00,,,0.00,VWS V14.01,2013-10-15 06:17:00,
2013-10-15 02:22:00,52.3,51.2,30.30,SW,231,0.0,0.0,96,0.00,,,0.00,VWS V14.01,2013-10-15 06:22:00,
2013-10-15 02:27:00,52.2,51.1,30.30,SW,232,0.0,0.0,96,0.00,,,0.00,VWS V14.01,2013-10-15 06:27:00,
2013-10-15 02:32:00,52.2,51.1,30.30,SW,231,0.0,0.0,96,0.00,,,0.00,VWS V14.01,2013-10-15 06:32:00,
2013-10-15 02:37:00,52.2,51.1,30.30,SW,232,0.0,0.0,96,0.00,,,0.00,VWS V14.01,2013-10-15 06:37:00,
2013-10-15 02:42:00,52.2,51.1,30.30,SW,232,0.0,0.0,96,0.00,,,0.00,VWS V14.01,2013-10-15 06:42:00,
2013-10-15 02:47:00,52.3,51.2,30.30,SW,231,0.0,0.0,96,0.00,,,0.00,VWS V14.01,2013-10-15 06:47:00,
2013-10-15 02:52:00,52.3,51.2,30.30,SW,232,0.0,0.0,96,0.00,,,0.00,VWS V14.01,2013-10-15 06:52:00,
2013-10-15 02:57:00,52.3,51.2,30.30,SW,232,0.0,0.0,96,0.00,,,0.00,VWS V14.01,2013-10-15 06:57:00,
2013-10-15 03:02:00,52.3,51.2,30.30,WSW,257,0.0,0.0,96,0.00,,,0.00,VWS V14.01,2013-10-15 07:02:00,
2013-10-15 03:08:00,52.4,51.3,30.30,West,262,0.0,0.0,96,0.00,,,0.00,VWS V14.01,2013-10-15 07:08:00,
2013-10-15 03:13:00,52.5,51.4,30.30,West,262,0.0,0.0,96,0.00,,,0.00,VWS V14.01,2013-10-15 07:13:00,
2013-10-15 03:18:00,52.5,51.4,30.29,West,262,0.0,0.0,96,0.00,,,0.00,VWS V14.01,2013-10-15 07:18:00,
2013-10-15 03:23:00,52.5,51.4,30.30,West,262,0.0,0.0,96,0.00,,,0.00,VWS V14.01,2013-10-15 07:23:00,
2013-10-15 03:28:00,52.4,51.3,30.29,West,262,0.0,0.0,96,0.00,,,0.00,VWS V14.01,2013-10-15 07:28:00,
2013-10-15 03:33:00,52.4,51.3,30.29,West,262,0.0,0.0,96,0.00,,,0.00,VWS V14.01,2013-10-15 07:33:00,
2013-10-15 03:38:00,52.2,51.1,30.29,West,262,0.0,0.0,96,0.00,,,0.00,VWS V14.01,2013-10-15 07:38:00,
2013-10-15 03:43:00,52.2,51.1,30.29,West,262,0.0,0.0,96,0.00,,,0.00,VWS V14.01,2013-10-15 07:43:00,
2013-10-15 03:48:00,52.0,50.9,30.29,West,262,0.0,0.0,96,0.00,,,0.00,VWS V14.01,2013-10-15 07:48:00,
2013-10-15 03:53:00,51.8,50.7,30.28,West,262,0.0,0.0,96,0.00,,,0.00,VWS V14.01,2013-10-15 07:53:00,
2013-10-15 03:58:00,51.6,50.5,30.28,West,262,0.0,0.0,96,0.00,,,0.00,VWS V14.01,2013-10-15 07:58:00,
2013-10-15 04:04:00,51.4,50.3,30.29,West,262,0.0,0.0,96,0.00,,,0.00,VWS V14.01,2013-10-15 08:04:00,
2013-10-15 04:09:00,51.3,50.2,30.28,West,262,0.0,0.0,96,0.00,,,0.00,VWS V14.01,2013-10-15 08:09:00,
2013-10-15 04:14:00,51.2,50.1,30.29,West,262,0.0,0.0,96,0.00,,,0.00,VWS V14.01,2013-10-15 08:14:00,
2013-10-15 04:19:00,51.2,50.1,30.29,West,262,0.0,0.0,96,0.00,,,0.00,VWS V14.01,2013-10-15 08:19:00,
2013-10-15 04:24:00,51.1,50.0,30.28,West,262,0.0,0.0,96,0.00,,,0.00,VWS V14.01,2013-10-15 08:24:00,
2013-10-15 04:29:00,51.2,50.1,30.28,West,262,0.0,0.0,96,0.00,,,0.00,VWS V14.01,2013-10-15 08:29:00,
2013-10-15 04:34:00,51.2,50.4,30.28,West,262,0.0,0.0,97,0.00,,,0.00,VWS V14.01,2013-10-15 08:34:00,
2013-10-15 04:39:00,51.2,50.4,30.28,West,262,0.0,0.0,97,0.00,,,0.00,VWS V14.01,2013-10-15 08:39:00,
2013-10-15 04:44:00,51.1,50.3,30.28,West,262,0.0,0.0,97,0.00,,,0.00,VWS V14.01,2013-10-15 08:44:00,
2013-10-15 04:49:00,51.0,50.2,30.28,West,262,0.0,0.0,97,0.00,,,0.00,VWS V14.01,2013-10-15 08:49:00,
2013-10-15 04:50:00,51.0,50.2,30.28,West,262,0.0,0.0,97,0.00,,,0.00,VWS V14.01,2013-10-15 08:50:00,
2013-10-15 04:55:00,51.0,50.2,30.28,West,262,0.0,0.0,97,0.00,,,0.00,VWS V14.01,2013-10-15 08:55:00,
2013-10-15 05:01:00,51.1,50.3,30.28,West,262,0.0,0.0,97,0.00,,,0.00,VWS V14.01,2013-10-15 09:01:00,
2013-10-15 05:06:00,51.1,50.3,30.28,West,262,0.0,0.0,97,0.00,,,0.00,VWS V14.01,2013-10-15 09:06:00,
2013-10-15 05:11:00,51.0,50.2,30.28,West,262,0.0,0.0,97,0.00,,,0.00,VWS V14.01,2013-10-15 09:11:00,
2013-10-15 05:16:00,50.9,50.1,30.28,West,262,0.0,0.0,97,0.00,,,0.00,VWS V14.01,2013-10-15 09:16:00,
2013-10-15 05:21:00,50.6,49.8,30.28,West,262,0.0,0.0,97,0.00,,,0.00,VWS V14.01,2013-10-15 09:21:00,
2013-10-15 05:26:00,50.4,49.6,30.28,West,262,0.0,0.0,97,0.00,,,0.00,VWS V14.01,2013-10-15 09:26:00,
2013-10-15 05:31:00,50.1,49.3,30.28,West,262,0.0,0.0,97,0.00,,,0.00,VWS V14.01,2013-10-15 09:31:00,
2013-10-15 05:36:00,49.9,49.1,30.28,West,262,0.0,0.0,97,0.00,,,0.00,VWS V14.01,2013-10-15 09:36:00,
2013-10-15 05:41:00,49.8,49.0,30.28,West,262,0.0,0.0,97,0.00,,,0.00,VWS V14.01,2013-10-15 09:41:00,
2013-10-15 05:46:00,49.8,49.0,30.28,West,262,0.0,0.0,97,0.00,,,0.00,VWS V14.01,2013-10-15 09:46:00,
2013-10-15 05:52:00,49.9,49.1,30.28,West,262,0.0,0.0,97,0.00,,,0.00,VWS V14.01,2013-10-15 09:52:00,
2013-10-15 05:57:00,50.0,49.2,30.28,West,262,0.0,0.0,97,0.00,,,0.00,VWS V14.01,2013-10-15 09:57:00,
2013-10-15 06:02:00,50.2,49.4,30.28,West,262,0.0,0.0,97,0.00,,,0.00,VWS V14.01,2013-10-15 10:02:00,
2013-10-15 06:07:00,50.3,49.5,30.28,West,262,0.0,0.0,97,0.00,,,0.00,VWS V14.01,2013-10-15 10:07:00,
2013-10-15 06:12:00,50.4,49.6,30.28,West,262,0.0,0.0,97,0.00,,,0.00,VWS V14.01,2013-10-15 10:12:00,
2013-10-15 06:17:00,50.4,49.6,30.28,West,262,0.0,0.0,97,0.00,,,0.00,VWS V14.01,2013-10-15 10:17:00,
2013-10-15 06:22:00,50.3,49.5,30.28,West,262,0.0,0.0,97,0.00,,,0.00,VWS V14.01,2013-10-15 10:22:00,
2013-10-15 06:27:00,50.2,49.4,30.28,West,262,0.0,0.0,97,0.00,,,0.00,VWS V14.01,2013-10-15 10:27:00,
2013-10-15 06:32:00,50.1,49.3,30.28,West,262,0.0,0.0,97,0.00,,,0.00,VWS V14.01,2013-10-15 10:32:00,
2013-10-15 06:37:00,50.1,49.3,30.28,West,262,0.0,0.0,97,0.00,,,0.00,VWS V14.01,2013-10-15 10:37:00,
2013-10-15 06:43:00,49.9,49.1,30.28,West,262,0.0,0.0,97,0.00,,,0.00,VWS V14.01,2013-10-15 10:43:00,
2013-10-15 06:48:00,49.9,49.1,30.28,West,262,0.0,0.0,97,0.00,,,0.00,VWS V14.01,2013-10-15 10:48:00,
2013-10-15 06:53:00,49.8,49.0,30.28,West,262,0.0,0.0,97,0.00,,,0.00,VWS V14.01,2013-10-15 10:53:00,
2013-10-15 06:58:00,49.6,48.8,30.28,West,262,0.0,0.0,97,0.00,,,0.00,VWS V14.01,2013-10-15 10:58:00,
2013-10-15 07:03:00,49.3,48.5,30.28,West,262,0.0,0.0,97,0.00,,,0.00,VWS V14.01,2013-10-15 11:03:00,
2013-10-15 07:08:00,49.1,48.3,30.28,West,262,0.0,0.0,97,0.00,,,0.00,VWS V14.01,2013-10-15 11:08:00,
2013-10-15 07:13:00,48.8,48.0,30.28,West,262,0.0,0.0,97,0.00,,,0.00,VWS V14.01,2013-10-15 11:13:00,
2013-10-15 07:18:00,48.8,48.0,30.28,West,262,0.0,0.0,97,0.00,,,0.00,VWS V14.01,2013-10-15 11:18:00,
2013-10-15 07:23:00,48.7,47.9,30.27,West,262,0.0,0.0,97,0.00,,,0.00,VWS V14.01,2013-10-15 11:23:00,
2013-10-15 07:28:00,48.9,48.4,30.27,West,262,0.0,0.0,98,0.00,,,0.00,VWS V14.01,2013-10-15 11:28:00,
2013-10-15 07:34:00,49.1,48.6,30.27,West,262,0.0,0.0,98,0.00,,,0.00,VWS V14.01,2013-10-15 11:34:00,
2013-10-15 07:39:00,49.3,48.8,30.28,West,262,0.0,0.0,98,0.00,,,0.00,VWS V14.01,2013-10-15 11:39:00,
2013-10-15 07:44:00,49.4,48.9,30.28,West,262,0.0,0.0,98,0.00,,,0.00,VWS V14.01,2013-10-15 11:44:00,
2013-10-15 07:49:00,49.4,48.9,30.28,West,262,0.0,0.0,98,0.00,,,0.00,VWS V14.01,2013-10-15 11:49:00,
2013-10-15 07:54:00,49.4,48.9,30.28,WSW,245,0.0,0.0,98,0.00,,,0.00,VWS V14.01,2013-10-15 11:54:00,
2013-10-15 07:59:00,49.4,48.9,30.29,WSW,245,0.0,0.0,98,0.00,,,0.00,VWS V14.01,2013-10-15 11:59:00,
2013-10-15 08:04:00,49.3,48.8,30.28,WSW,245,0.0,0.0,98,0.00,,,0.00,VWS V14.01,2013-10-15 12:04:00,
2013-10-15 08:09:00,49.3,48.8,30.28,WSW,241,0.0,0.0,98,0.00,,,0.00,VWS V14.01,2013-10-15 12:09:00,
2013-10-15 08:15:00,49.3,48.8,30.28,WSW,242,0.0,0.0,98,0.00,,,0.00,VWS V14.01,2013-10-15 12:15:00,
2013-10-15 08:20:00,49.3,48.8,30.29,WSW,242,0.0,0.0,98,0.00,,,0.00,VWS V14.01,2013-10-15 12:20:00,
2013-10-15 08:25:00,49.4,48.9,30.28,WSW,242,0.0,0.0,98,0.00,,,0.00,VWS V14.01,2013-10-15 12:25:00,
2013-10-15 08:30:00,49.6,49.1,30.29,WSW,242,0.0,0.0,98,0.00,,,0.00,VWS V14.01,2013-10-15 12:30:00,
2013-10-15 08:35:00,49.8,49.3,30.29,WSW,242,0.0,0.0,98,0.00,,,0.00,VWS V14.01,2013-10-15 12:35:00,
2013-10-15 08:40:00,50.1,49.6,30.29,WSW,242,0.0,0.0,98,0.00,,,0.00,VWS V14.01,2013-10-15 12:40:00,
2013-10-15 08:45:00,50.4,49.9,30.28,WSW,242,0.0,0.0,98,0.00,,,0.00,VWS V14.01,2013-10-15 12:45:00,
2013-10-15 08:50:00,50.7,50.2,30.28,WSW,242,0.0,0.0,98,0.00,,,0.00,VWS V14.01,2013-10-15 12:50:00,
2013-10-15 08:55:00,51.0,50.5,30.28,WSW,242,0.0,0.0,98,0.00,,,0.00,VWS V14.01,2013-10-15 12:55:00,
2013-10-15 09:01:00,51.3,50.8,30.28,WSW,242,0.0,0.0,98,0.00,,,0.00,VWS V14.01,2013-10-15 13:01:00,
2013-10-15 09:06:00,51.6,51.1,30.28,WSW,241,0.0,0.0,98,0.00,,,0.00,VWS V14.01,2013-10-15 13:06:00,
2013-10-15 09:11:00,52.0,51.5,30.27,WSW,242,0.0,0.0,98,0.00,,,0.00,VWS V14.01,2013-10-15 13:11:00,
2013-10-15 09:16:00,52.3,51.8,30.27,ESE,121,0.0,0.0,98,0.00,,,0.00,VWS V14.01,2013-10-15 13:16:00,
2013-10-15 09:21:00,52.7,52.2,30.27,ESE,121,0.0,0.0,98,0.00,,,0.00,VWS V14.01,2013-10-15 13:21:00,
2013-10-15 09:26:00,53.0,52.5,30.27,ESE,105,0.0,0.0,98,0.00,,,0.00,VWS V14.01,2013-10-15 13:26:00,
2013-10-15 09:31:00,53.4,52.8,30.27,East,91,0.0,0.0,98,0.00,,,0.00,VWS V14.01,2013-10-15 13:31:00,
2013-10-15 09:36:00,53.8,53.2,30.27,East,86,0.0,0.0,98,0.00,,,0.00,VWS V14.01,2013-10-15 13:36:00,
2013-10-15 09:41:00,54.2,53.7,30.27,SE,139,1.0,1.0,98,0.00,,,0.00,VWS V14.01,2013-10-15 13:41:00,
2013-10-15 09:46:00,54.6,54.0,30.27,East,96,0.0,2.0,98,0.00,,OVC042,0.00,VWS V14.01,2013-10-15 13:46:00,
2013-10-15 09:52:00,55.0,54.5,30.26,SE,134,0.0,2.0,98,0.00,,OVC042,0.00,VWS V14.01,2013-10-15 13:52:00,
2013-10-15 09:57:00,55.3,54.8,30.27,SE,125,1.0,2.0,98,0.00,,OVC042,0.00,VWS V14.01,2013-10-15 13:57:00,
2013-10-15 10:02:00,55.5,55.0,30.26,SE,127,0.0,3.0,98,0.00,,OVC042,0.00,VWS V14.01,2013-10-15 14:02:00,
2013-10-15 10:07:00,56.1,55.5,30.26,SSE,158,1.0,2.0,98,0.00,,OVC042,0.00,VWS V14.01,2013-10-15 14:07:00,
2013-10-15 10:12:00,57.0,56.2,30.26,SSW,200,2.0,3.0,97,0.00,,OVC042,0.00,VWS V14.01,2013-10-15 14:12:00,
2013-10-15 10:17:00,57.8,56.4,30.26,SSW,212,1.0,3.0,95,0.00,,OVC042,0.00,VWS V14.01,2013-10-15 14:17:00,
2013-10-15 10:22:00,58.4,56.1,30.26,South,173,2.0,5.0,92,0.00,,OVC042,0.00,VWS V14.01,2013-10-15 14:22:00,
2013-10-15 10:27:00,58.6,56.0,30.26,SSW,211,3.0,5.0,91,0.00,,OVC042,0.00,VWS V14.01,2013-10-15 14:27:00,
2013-10-15 10:32:00,58.7,55.5,30.26,SSW,207,1.0,5.0,89,0.00,,OVC042,0.00,VWS V14.01,2013-10-15 14:32:00,
2013-10-15 10:37:00,58.8,55.3,30.25,SSE,158,2.0,4.0,88,0.00,,OVC042,0.00,VWS V14.01,2013-10-15 14:37:00,
2013-10-15 10:42:00,59.0,55.5,30.25,South,181,3.0,4.0,88,0.00,,OVC042,0.00,VWS V14.01,2013-10-15 14:42:00,
2013-10-15 10:47:00,59.4,55.8,30.25,SW,215,2.0,4.0,88,0.00,,BKN042,0.00,VWS V14.01,2013-10-15 14:47:00,
2013-10-15 10:53:00,59.8,55.9,30.24,SSE,151,1.0,4.0,87,0.00,,BKN042,0.00,VWS V14.01,2013-10-15 14:53:00,
2013-10-15 10:58:00,60.5,56.3,30.24,South,191,2.0,4.0,86,0.00,,BKN042,0.00,VWS V14.01,2013-10-15 14:58:00,
2013-10-15 11:03:00,60.8,56.3,30.24,SSW,205,3.0,4.0,85,0.00,,OVC042,0.00,VWS V14.01,2013-10-15 15:03:00,
2013-10-15 11:08:00,61.2,56.3,30.23,SSW,205,2.0,4.0,84,0.00,,OVC042,0.00,VWS V14.01,2013-10-15 15:08:00,
2013-10-15 11:13:00,61.6,56.7,30.23,SSE,166,2.0,5.0,84,0.00,,OVC042,0.00,VWS V14.01,2013-10-15 15:13:00,
2013-10-15 11:18:00,62.2,56.6,30.23,SSW,210,1.0,5.0,82,0.00,,OVC042,0.00,VWS V14.01,2013-10-15 15:18:00,
2013-10-15 11:23:00,62.5,56.6,30.22,ESE,120,4.0,6.0,81,0.00,,OVC042,0.00,VWS V14.01,2013-10-15 15:23:00,
2013-10-15 11:28:00,62.7,56.8,30.22,SW,218,4.0,7.0,81,0.00,,OVC042,0.00,VWS V14.01,2013-10-15 15:28:00,
2013-10-15 11:33:00,62.9,56.6,30.22,South,172,5.0,5.0,80,0.00,,OVC042,0.00,VWS V14.01,2013-10-15 15:33:00,
2013-10-15 11:38:00,62.7,56.5,30.22,SSE,152,3.0,8.0,80,0.00,,OVC042,0.00,VWS V14.01,2013-10-15 15:38:00,
2013-10-15 11:44:00,63.1,57.2,30.21,SE,132,4.0,8.0,81,0.00,,OVC042,0.00,VWS V14.01,2013-10-15 15:44:00,
2013-10-15 11:49:00,63.0,56.4,30.21,SSE,150,2.0,8.0,79,0.00,,OVC041,0.00,VWS V14.01,2013-10-15 15:49:00,
2013-10-15 11:54:00,62.9,56.6,30.21,SSE,159,4.0,8.0,80,0.00,,OVC041,0.00,VWS V14.01,2013-10-15 15:54:00,
2013-10-15 11:59:00,62.7,56.5,30.21,SSE,158,3.0,8.0,80,0.00,,OVC041,0.00,VWS V14.01,2013-10-15 15:59:00,
2013-10-15 12:04:00,63.0,56.7,30.21,SSW,192,4.0,6.0,80,0.00,,OVC041,0.00,VWS V14.01,2013-10-15 16:04:00,
2013-10-15 12:09:00,62.8,56.2,30.21,SE,129,2.0,7.0,79,0.00,,OVC041,0.00,VWS V14.01,2013-10-15 16:09:00,
2013-10-15 12:14:00,62.9,57.0,30.21,SSW,207,2.0,7.0,81,0.00,,OVC041,0.00,VWS V14.01,2013-10-15 16:14:00,
2013-10-15 12:19:00,62.7,56.5,30.21,SSW,203,0.0,7.0,80,0.00,,OVC041,0.00,VWS V14.01,2013-10-15 16:19:00,
2013-10-15 12:24:00,62.5,56.2,30.22,SSW,211,2.0,7.0,80,0.00,,OVC041,0.00,VWS V14.01,2013-10-15 16:24:00,
2013-10-15 12:29:00,62.6,56.3,30.21,South,174,2.0,7.0,80,0.00,,OVC041,0.00,VWS V14.01,2013-10-15 16:29:00,
2013-10-15 12:34:00,62.8,56.5,30.21,SSE,167,1.0,4.0,80,0.00,,OVC041,0.00,VWS V14.01,2013-10-15 16:34:00,
2013-10-15 12:40:00,63.0,56.7,30.21,SW,218,1.0,6.0,80,0.00,,OVC041,0.00,VWS V14.01,2013-10-15 16:40:00,
2013-10-15 12:45:00,63.3,57.4,30.20,ESE,107,3.0,7.0,81,0.00,,OVC041,0.00,VWS V14.01,2013-10-15 16:45:00,
2013-10-15 12:50:00,63.8,57.2,30.20,ESE,123,1.0,7.0,79,0.00,,BKN040,0.00,VWS V14.01,2013-10-15 16:50:00,
2013-10-15 12:55:00,64.0,57.4,30.20,SSW,197,0.0,7.0,79,0.00,,BKN040,0.00,VWS V14.01,2013-10-15 16:55:00,
2013-10-15 13:00:00,64.1,57.1,30.19,SW,232,0.0,7.0,78,0.00,,BKN040,0.00,VWS V14.01,2013-10-15 17:00:00,
2013-10-15 13:05:00,64.1,56.8,30.19,SW,219,1.0,4.0,77,0.00,,BKN040,0.00,VWS V14.01,2013-10-15 17:05:00,
2013-10-15 13:10:00,64.2,56.5,30.19,South,190,2.0,4.0,76,0.00,,BKN040,0.00,VWS V14.01,2013-10-15 17:10:00,
2013-10-15 13:15:00,64.2,56.8,30.18,SSE,153,1.0,4.0,77,0.00,,BKN040,0.00,VWS V14.01,2013-10-15 17:15:00,
2013-10-15 13:20:00,64.3,57.0,30.18,South,184,0.0,4.0,77,0.00,,BKN040,0.00,VWS V14.01,2013-10-15 17:20:00,
2013-10-15 13:25:00,64.5,56.8,30.18,SSW,203,1.0,4.0,76,0.00,,BKN040,0.00,VWS V14.01,2013-10-15 17:25:00,
2013-10-15 13:31:00,64.4,57.0,30.17,SSW,197,1.0,4.0,77,0.00,,BKN040,0.00,VWS V14.01,2013-10-15 17:31:00,
2013-10-15 13:36:00,64.1,56.4,30.17,SSE,158,1.0,6.0,76,0.00,,BKN040,0.00,VWS V14.01,2013-10-15 17:36:00,
2013-10-15 13:41:00,63.8,56.5,30.17,South,179,4.0,6.0,77,0.00,,BKN040,0.00,VWS V14.01,2013-10-15 17:41:00,
2013-10-15 13:46:00,63.5,56.5,30.17,South,169,2.0,7.0,78,0.00,,OVC038,0.00,VWS V14.01,2013-10-15 17:46:00,
2013-10-15 13:51:00,63.5,56.9,30.17,South,186,2.0,7.0,79,0.00,,OVC038,0.00,VWS V14.01,2013-10-15 17:51:00,
2013-10-15 13:56:00,63.5,56.5,30.16,SSE,167,1.0,7.0,78,0.00,,OVC038,0.00,VWS V14.01,2013-10-15 17:56:00,
2013-10-15 14:01:00,63.5,56.9,30.17,South,190,1.0,7.0,79,0.00,,BKN036,0.00,VWS V14.01,2013-10-15 18:01:00,
2013-10-15 14:06:00,63.5,56.9,30.17,SSE,160,4.0,5.0,79,0.00,,BKN036,0.00,VWS V14.01,2013-10-15 18:06:00,
2013-10-15 14:11:00,63.4,56.4,30.16,SSW,207,2.0,5.0,78,0.00,,BKN036,0.00,VWS V14.01,2013-10-15 18:11:00,
2013-10-15 14:16:00,63.3,57.0,30.16,SSW,197,1.0,5.0,80,0.00,,BKN036,0.00,VWS V14.01,2013-10-15 18:16:00,
2013-10-15 14:22:00,63.2,56.6,30.16,SSW,197,1.0,5.0,79,0.00,,BKN036,0.00,VWS V14.01,2013-10-15 18:22:00,
2013-10-15 14:27:00,63.1,56.5,30.16,SSW,197,3.0,5.0,79,0.00,,BKN036,0.00,VWS V14.01,2013-10-15 18:27:00,
2013-10-15 14:32:00,63.1,56.5,30.16,SW,222,3.0,5.0,79,0.00,,BKN036,0.00,VWS V14.01,2013-10-15 18:32:00,
2013-10-15 14:37:00,63.1,56.8,30.16,SSW,210,2.0,4.0,80,0.00,,BKN036,0.00,VWS V14.01,2013-10-15 18:37:00,
2013-10-15 14:42:00,63.2,56.2,30.16,SW,224,3.0,5.0,78,0.00,,BKN036,0.00,VWS V14.01,2013-10-15 18:42:00,
2013-10-15 14:47:00,63.3,56.3,30.15,SSW,208,3.0,5.0,78,0.00,,OVC034,0.00,VWS V14.01,2013-10-15 18:47:00,
2013-10-15 14:52:00,63.2,55.9,30.15,SSW,203,1.0,5.0,77,0.00,,OVC034,0.00,VWS V14.01,2013-10-15 18:52:00,
2013-10-15 14:57:00,63.3,56.0,30.15,SW,221,1.0,5.0,77,0.00,,OVC034,0.00,VWS V14.01,2013-10-15 18:57:00,
2013-10-15 15:02:00,63.3,56.3,30.15,SSW,210,2.0,5.0,78,0.00,,OVC034,0.00,VWS V14.01,2013-10-15 19:02:00,
2013-10-15 15:07:00,63.4,56.1,30.15,SW,229,2.0,3.0,77,0.00,,OVC034,0.00,VWS V14.01,2013-10-15 19:07:00,
2013-10-15 15:13:00,63.4,56.1,30.15,SW,228,2.0,4.0,77,0.00,,OVC034,0.00,VWS V14.01,2013-10-15 19:13:00,
2013-10-15 15:18:00,63.4,56.1,30.15,SW,229,2.0,4.0,77,0.00,,OVC034,0.00,VWS V14.01,2013-10-15 19:18:00,
2013-10-15 15:23:00,63.5,56.5,30.14,SW,222,2.0,4.0,78,0.00,,OVC034,0.00,VWS V14.01,2013-10-15 19:23:00,
2013-10-15 15:28:00,63.5,56.2,30.14,WSW,242,1.0,4.0,77,0.00,,OVC034,0.00,VWS V14.01,2013-10-15 19:28:00,
2013-10-15 15:33:00,63.5,56.9,30.14,SW,232,1.0,1.0,79,0.00,,OVC034,0.00,VWS V14.01,2013-10-15 19:33:00,
2013-10-15 15:38:00,63.7,56.7,30.14,SW,229,0.0,2.0,78,0.00,,OVC034,0.00,VWS V14.01,2013-10-15 19:38:00,
2013-10-15 15:43:00,63.8,56.5,30.13,SSW,211,0.0,2.0,77,0.00,,OVC034,0.00,VWS V14.01,2013-10-15 19:43:00,
2013-10-15 15:48:00,64.0,56.7,30.13,SW,218,1.0,2.0,77,0.00,,OVC030,0.00,VWS V14.01,2013-10-15 19:48:00,
2013-10-15 15:53:00,64.1,56.4,30.13,SW,225,0.0,3.0,76,0.00,,OVC030,0.00,VWS V14.01,2013-10-15 19:53:00,
2013-10-15 15:59:00,64.3,56.6,30.12,SSW,201,0.0,3.0,76,0.00,,OVC030,0.00,VWS V14.01,2013-10-15 19:59:00,
2013-10-15 16:04:00,64.5,56.8,30.12,SSW,208,2.0,3.0,76,0.00,,OVC030,0.00,VWS V14.01,2013-10-15 20:04:00,
2013-10-15 16:09:00,64.4,56.3,30.11,South,179,2.0,4.0,75,0.00,,OVC030,0.00,VWS V14.01,2013-10-15 20:09:00,
2013-10-15 16:14:00,64.3,56.6,30.11,SSW,200,1.0,5.0,76,0.00,,OVC030,0.00,VWS V14.01,2013-10-15 20:14:00,
2013-10-15 16:19:00,64.2,56.5,30.11,SSW,197,3.0,5.0,76,0.00,,OVC030,0.00,VWS V14.01,2013-10-15 20:19:00,
2013-10-15 16:24:00,64.1,56.4,30.10,South,169,2.0,5.0,76,0.00,,OVC030,0.00,VWS V14.01,2013-10-15 20:24:00,
2013-10-15 16:29:00,64.3,57.0,30.10,ESE,104,3.0,5.0,77,0.00,,OVC030,0.00,VWS V14.01,2013-10-15 20:29:00,
2013-10-15 16:35:00,64.5,56.8,30.10,South,176,3.0,4.0,76,0.00,,OVC030,0.00,VWS V14.01,2013-10-15 20:35:00,
2013-10-15 16:40:00,64.7,57.0,30.10,WSW,239,2.0,4.0,76,0.00,,OVC030,0.00,VWS V14.01,2013-10-15 20:40:00,
2013-10-15 16:45:00,64.8,56.7,30.10,South,181,2.0,5.0,75,0.00,,OVC030,0.00,VWS V14.01,2013-10-15 20:45:00,
2013-10-15 16:50:00,64.8,57.1,30.10,SSW,210,2.0,6.0,76,0.00,,OVC030,0.00,VWS V14.01,2013-10-15 20:50:00,
2013-10-15 16:55:00,64.6,56.9,30.10,South,188,1.0,6.0,76,0.00,,OVC030,0.00,VWS V14.01,2013-10-15 20:55:00,
2013-10-15 17:00:00,64.5,56.8,30.09,SW,217,2.0,6.0,76,0.00,,OVC030,0.00,VWS V14.01,2013-10-15 21:00:00,
2013-10-15 17:05:00,64.8,57.4,30.10,South,189,3.0,4.0,77,0.00,,OVC032,0.00,VWS V14.01,2013-10-15 21:05:00,
2013-10-15 17:10:00,64.9,56.8,30.10,SSW,193,0.0,4.0,75,0.00,,OVC032,0.00,VWS V14.01,2013-10-15 21:10:00,
2013-10-15 17:16:00,64.7,56.6,30.09,SSW,192,0.0,4.0,75,0.00,,OVC032,0.00,VWS V14.01,2013-10-15 21:16:00,
2013-10-15 17:21:00,64.6,56.9,30.09,SSW,203,0.0,4.0,76,0.00,,OVC032,0.00,VWS V14.01,2013-10-15 21:21:00,
2013-10-15 17:26:00,64.5,56.8,30.10,SSW,201,0.0,4.0,76,0.00,,OVC032,0.00,VWS V14.01,2013-10-15 21:26:00,
2013-10-15 17:31:00,64.3,57.0,30.10,SSW,193,0.0,4.0,77,0.00,,OVC032,0.00,VWS V14.01,2013-10-15 21:31:00,
2013-10-15 17:36:00,64.2,56.8,30.10,SE,146,0.0,0.0,77,0.00,,OVC032,0.00,VWS V14.01,2013-10-15 21:36:00,
2013-10-15 17:41:00,64.1,57.1,30.10,SE,142,0.0,0.0,78,0.00,,OVC032,0.00,VWS V14.01,2013-10-15 21:41:00,
2013-10-15 17:46:00,63.8,57.2,30.10,SSW,200,0.0,0.0,79,0.00,,CLR,0.00,VWS V14.01,2013-10-15 21:46:00,
2013-10-15 17:51:00,63.6,57.0,30.10,ESE,122,0.0,0.0,79,0.00,,CLR,0.00,VWS V14.01,2013-10-15 21:51:00,
2013-10-15 17:56:00,63.4,56.8,30.10,South,177,0.0,0.0,79,0.00,,CLR,0.00,VWS V14.01,2013-10-15 21:56:00,
2013-10-15 18:01:00,63.2,56.9,30.10,SE,129,0.0,0.0,80,0.00,,CLR,0.00,VWS V14.01,2013-10-15 22:01:00,
2013-10-15 18:07:00,63.0,56.7,30.10,SE,129,0.0,0.0,80,0.00,,CLR,0.00,VWS V14.01,2013-10-15 22:07:00,
2013-10-15 18:12:00,62.7,56.8,30.10,SE,128,0.0,0.0,81,0.00,,CLR,0.00,VWS V14.01,2013-10-15 22:12:00,
2013-10-15 18:17:00,62.2,56.6,30.10,SE,129,0.0,0.0,82,0.00,,CLR,0.00,VWS V14.01,2013-10-15 22:17:00,
2013-10-15 18:22:00,61.6,56.4,30.10,SE,128,0.0,0.0,83,0.00,,CLR,0.00,VWS V14.01,2013-10-15 22:22:00,
2013-10-15 18:27:00,60.9,56.4,30.10,SE,128,0.0,0.0,85,0.00,,CLR,0.00,VWS V14.01,2013-10-15 22:27:00,
2013-10-15 18:32:00,60.4,56.2,30.09,SE,129,0.0,0.0,86,0.00,,CLR,0.00,VWS V14.01,2013-10-15 22:32:00,
2013-10-15 18:37:00,60.0,55.8,30.09,SE,129,0.0,0.0,86,0.00,,CLR,0.00,VWS V14.01,2013-10-15 22:37:00,
2013-10-15 18:42:00,59.5,55.6,30.09,SE,129,0.0,0.0,87,0.00,,CLR,0.00,VWS V14.01,2013-10-15 22:42:00,
2013-10-15 18:47:00,59.1,55.5,30.09,SE,128,0.0,0.0,88,0.00,,CLR,0.00,VWS V14.01,2013-10-15 22:47:00,
2013-10-15 18:52:00,58.8,55.3,30.09,SE,129,0.0,0.0,88,0.00,,CLR,0.00,VWS V14.01,2013-10-15 22:52:00,
2013-10-15 18:58:00,58.5,55.3,30.09,SE,129,0.0,0.0,89,0.00,,CLR,0.00,VWS V14.01,2013-10-15 22:58:00,
2013-10-15 19:03:00,58.6,55.4,30.08,SE,129,0.0,0.0,89,0.00,,CLR,0.00,VWS V14.01,2013-10-15 23:03:00,
2013-10-15 19:08:00,58.6,55.4,30.09,SE,129,0.0,0.0,89,0.00,,CLR,0.00,VWS V14.01,2013-10-15 23:08:00,
2013-10-15 19:13:00,58.4,55.2,30.08,SE,128,0.0,0.0,89,0.00,,CLR,0.00,VWS V14.01,2013-10-15 23:13:00,
2013-10-15 19:18:00,58.1,55.2,30.08,SE,129,0.0,0.0,90,0.00,,CLR,0.00,VWS V14.01,2013-10-15 23:18:00,
2013-10-15 19:23:00,58.0,55.1,30.08,SE,128,0.0,0.0,90,0.00,,CLR,0.00,VWS V14.01,2013-10-15 23:23:00,
2013-10-15 19:28:00,57.9,55.0,30.08,SE,129,0.0,0.0,90,0.00,,CLR,0.00,VWS V14.01,2013-10-15 23:28:00,
2013-10-15 19:33:00,57.8,54.9,30.08,SE,129,0.0,0.0,90,0.00,,CLR,0.00,VWS V14.01,2013-10-15 23:33:00,
2013-10-15 19:38:00,57.6,55.0,30.08,SE,129,0.0,0.0,91,0.00,,CLR,0.00,VWS V14.01,2013-10-15 23:38:00,
2013-10-15 19:44:00,57.6,55.0,30.08,SE,128,0.0,0.0,91,0.00,,CLR,0.00,VWS V14.01,2013-10-15 23:44:00,
2013-10-15 19:49:00,57.6,55.0,30.08,SE,129,0.0,0.0,91,0.00,,CLR,0.00,VWS V14.01,2013-10-15 23:49:00,
2013-10-15 19:54:00,57.5,54.9,30.08,SE,129,0.0,0.0,91,0.00,,CLR,0.00,VWS V14.01,2013-10-15 23:54:00,
2013-10-15 19:59:00,57.5,55.2,30.08,SE,129,0.0,0.0,92,0.00,,CLR,0.00,VWS V14.01,2013-10-15 23:59:00,
2013-10-15 20:04:00,57.5,55.2,30.08,SE,129,0.0,0.0,92,0.00,,CLR,0.00,VWS V14.01,2013-10-16 00:04:00,
2013-10-15 20:09:00,57.3,54.7,30.08,SE,129,0.0,0.0,91,0.00,,CLR,0.00,VWS V14.01,2013-10-16 00:09:00,
2013-10-15 20:14:00,57.3,55.0,30.08,SE,128,0.0,0.0,92,0.00,,CLR,0.00,VWS V14.01,2013-10-16 00:14:00,
2013-10-15 20:19:00,57.2,54.9,30.08,SE,129,0.0,0.0,92,0.00,,CLR,0.00,VWS V14.01,2013-10-16 00:19:00,
2013-10-15 20:25:00,57.0,54.7,30.08,SE,128,0.0,0.0,92,0.00,,CLR,0.00,VWS V14.01,2013-10-16 00:25:00,
2013-10-15 20:30:00,56.8,54.5,30.07,SE,129,0.0,0.0,92,0.00,,CLR,0.00,VWS V14.01,2013-10-16 00:30:00,
2013-10-15 20:35:00,56.5,54.2,30.07,SE,129,0.0,0.0,92,0.00,,CLR,0.00,VWS V14.01,2013-10-16 00:35:00,
2013-10-15 20:40:00,56.5,54.5,30.07,SE,128,0.0,0.0,93,0.00,,CLR,0.00,VWS V14.01,2013-10-16 00:40:00,
2013-10-15 20:45:00,56.6,54.6,30.07,SE,129,0.0,0.0,93,0.00,,CLR,0.00,VWS V14.01,2013-10-16 00:45:00,
2013-10-15 20:50:00,56.7,55.0,30.07,SE,129,0.0,0.0,94,0.00,,CLR,0.00,VWS V14.01,2013-10-16 00:50:00,
2013-10-15 20:55:00,56.8,55.1,30.07,SE,128,0.0,0.0,94,0.00,,CLR,0.00,VWS V14.01,2013-10-16 00:55:00,
2013-10-15 21:00:00,57.1,55.1,30.07,SE,128,0.0,0.0,93,0.00,,CLR,0.00,VWS V14.01,2013-10-16 01:00:00,
2013-10-15 21:05:00,57.2,55.2,30.07,SE,128,0.0,0.0,93,0.00,,CLR,0.00,VWS V14.01,2013-10-16 01:05:00,
2013-10-15 21:11:00,57.1,54.8,30.06,SE,129,0.0,0.0,92,0.00,,CLR,0.00,VWS V14.01,2013-10-16 01:11:00,
2013-10-15 21:16:00,57.2,55.2,30.07,SE,129,0.0,0.0,93,0.00,,CLR,0.00,VWS V14.01,2013-10-16 01:16:00,
2013-10-15 21:21:00,57.5,55.5,30.07,SSW,205,1.0,1.0,93,0.00,,CLR,0.00,VWS V14.01,2013-10-16 01:21:00,
2013-10-15 21:26:00,58.3,55.4,30.07,WSW,241,2.0,2.0,90,0.00,,CLR,0.00,VWS V14.01,2013-10-16 01:26:00,
2013-10-15 21:31:00,58.6,55.1,30.07,SW,225,1.0,2.0,88,0.00,,CLR,0.00,VWS V14.01,2013-10-16 01:31:00,
2013-10-15 21:36:00,58.7,55.2,30.06,SW,221,1.0,2.0,88,0.00,,CLR,0.00,VWS V14.01,2013-10-16 01:36:00,
2013-10-15 21:41:00,58.9,55.0,30.07,SW,217,1.0,2.0,87,0.00,,CLR,0.00,VWS V14.01,2013-10-16 01:41:00,
2013-10-15 21:46:00,59.2,55.0,30.07,SW,228,2.0,3.0,86,0.00,,CLR,0.00,VWS V14.01,2013-10-16 01:46:00,
2013-10-15 21:52:00,59.6,55.1,30.07,SW,225,2.0,3.0,85,0.00,,CLR,0.00,VWS V14.01,2013-10-16 01:52:00,
2013-10-15 21:57:00,59.8,55.0,30.06,SW,233,3.0,3.0,84,0.00,,CLR,0.00,VWS V14.01,2013-10-16 01:57:00,
2013-10-15 22:02:00,60.1,54.9,30.06,SW,232,1.0,4.0,83,0.00,,CLR,0.00,VWS V14.01,2013-10-16 02:02:00,
2013-10-15 22:07:00,60.2,55.0,30.06,WSW,244,1.0,3.0,83,0.00,,CLR,0.00,VWS V14.01,2013-10-16 02:07:00,
2013-10-15 22:12:00,60.4,54.5,30.06,WSW,244,2.0,4.0,81,0.00,,CLR,0.00,VWS V14.01,2013-10-16 02:12:00,
2013-10-15 22:17:00,60.7,54.8,30.06,WSW,245,2.0,4.0,81,0.00,,CLR,0.00,VWS V14.01,2013-10-16 02:17:00,
2013-10-15 22:22:00,60.8,54.6,30.05,SW,225,1.0,4.0,80,0.00,,CLR,0.00,VWS V14.01,2013-10-16 02:22:00,
2013-10-15 22:27:00,60.9,54.7,30.05,WSW,257,2.0,4.0,80,0.00,,CLR,0.00,VWS V14.01,2013-10-16 02:27:00,
2013-10-15 22:33:00,60.9,54.3,30.05,WSW,245,1.0,4.0,79,0.00,,CLR,0.00,VWS V14.01,2013-10-16 02:33:00,
2013-10-15 22:38:00,60.8,54.3,30.05,WSW,242,2.0,3.0,79,0.00,,CLR,0.00,VWS V14.01,2013-10-16 02:38:00,
2013-10-15 22:43:00,60.7,54.5,30.05,SW,224,0.0,3.0,80,0.00,,CLR,0.00,VWS V14.01,2013-10-16 02:43:00,
2013-10-15 22:48:00,60.5,54.3,30.04,SSW,212,1.0,3.0,80,0.00,,CLR,0.00,VWS V14.01,2013-10-16 02:48:00,
2013-10-15 22:53:00,60.5,54.0,30.04,WSW,239,1.0,3.0,79,0.00,,CLR,0.00,VWS V14.01,2013-10-16 02:53:00,
2013-10-15 22:58:00,60.2,54.0,30.04,WSW,239,0.0,3.0,80,0.00,,CLR,0.00,VWS V14.01,2013-10-16 02:58:00,
2013-10-15 23:03:00,59.6,53.8,30.04,WSW,239,0.0,0.0,81,0.00,,CLR,0.00,VWS V14.01,2013-10-16 03:03:00,
2013-10-15 23:08:00,59.2,53.4,30.04,WSW,239,0.0,0.0,81,0.00,,CLR,0.00,VWS V14.01,2013-10-16 03:08:00,
2013-10-15 23:13:00,58.9,53.4,30.04,WSW,239,0.0,1.0,82,0.00,,CLR,0.00,VWS V14.01,2013-10-16 03:13:00,
2013-10-15 23:18:00,58.8,53.3,30.04,WSW,239,0.0,1.0,82,0.00,,CLR,0.00,VWS V14.01,2013-10-16 03:18:00,
2013-10-15 23:24:00,58.4,53.3,30.04,WSW,239,0.0,1.0,83,0.00,,CLR,0.00,VWS V14.01,2013-10-16 03:24:00,
2013-10-15 23:29:00,57.9,52.8,30.04,WSW,245,0.0,1.0,83,0.00,,CLR,0.00,VWS V14.01,2013-10-16 03:29:00,
2013-10-15 23:34:00,57.7,52.6,30.04,WSW,245,0.0,0.0,83,0.00,,CLR,0.00,VWS V14.01,2013-10-16 03:34:00,
2013-10-15 23:39:00,57.6,52.5,30.04,WSW,245,0.0,0.0,83,0.00,,CLR,0.00,VWS V14.01,2013-10-16 03:39:00,
2013-10-15 23:44:00,57.4,52.3,30.04,WSW,245,0.0,0.0,83,0.00,,CLR,0.00,VWS V14.01,2013-10-16 03:44:00,
2013-10-15 23:49:00,57.8,52.0,30.03,SSW,208,1.0,3.0,81,0.00,,CLR,0.00,VWS V14.01,2013-10-16 03:49:00,
2013-10-15 23:54:00,58.7,52.2,30.03,WSW,245,0.0,3.0,79,0.00,,CLR,0.00,VWS V14.01,2013-10-16 03:54:00,
2013-10-15 23:59:00,59.3,51.8,30.03,WSW,246,1.0,4.0,76,0.00,,CLR,0.00,VWS V14.01,2013-10-16 03:59:00,